N511WM KPGD-KMCO
Flight info
| Callsign | N511WM |
|---|---|
| Flight time | 0h 36m |
| Altitude | 11000 |
| Route | ROGAN DOWNN MOANS JOKRS4 |
| Aircraft | BE60/L-SDFGRY/C |
Departure
| Time | 2026-04-20 18:58 |
|---|---|
| Airport | Punta Gorda Airport (KPGD) |
Arrival
| Time | 2026-04-20 19:34 |
|---|---|
| Airport | Orlando International Airport (KMCO) |
| Time | Latitude | Longitude | Altitude | Speed | Heading |
|---|---|---|---|---|---|
| 2026-04-20 18:42 | 26.91827 | -82.00065 | 27 ft | 0 kts | 239° |
| 2026-04-20 18:50 | 26.91826 | -82.00066 | 27 ft | 2 kts | 239° |
| 2026-04-20 18:50 | 26.91828 | -82.00100 | 28 ft | 8 kts | 334° |
| 2026-04-20 18:50 | 26.91878 | -82.00045 | 28 ft | 14 kts | 60° |
| 2026-04-20 18:51 | 26.91889 | -81.99934 | 26 ft | 14 kts | 94° |
| 2026-04-20 18:51 | 26.91920 | -81.99852 | 26 ft | 11 kts | 58° |
| 2026-04-20 18:51 | 26.92007 | -81.99863 | 28 ft | 16 kts | 334° |
| 2026-04-20 18:51 | 26.92116 | -81.99938 | 28 ft | 21 kts | 328° |
| 2026-04-20 18:52 | 26.92238 | -82.00020 | 31 ft | 17 kts | 327° |
| 2026-04-20 18:52 | 26.92310 | -82.00015 | 32 ft | 10 kts | 60° |
| 2026-04-20 18:52 | 26.92322 | -81.99992 | 33 ft | 3 kts | 57° |
| 2026-04-20 18:52 | 26.92348 | -81.99944 | 33 ft | 11 kts | 58° |
| 2026-04-20 18:53 | 26.92395 | -81.99859 | 35 ft | 12 kts | 61° |
| 2026-04-20 18:53 | 26.92414 | -81.99819 | 35 ft | 0 kts | 131° |
| 2026-04-20 18:56 | 26.92413 | -81.99818 | 35 ft | 2 kts | 142° |
| 2026-04-20 18:57 | 26.92400 | -81.99851 | 35 ft | 10 kts | 249° |
| 2026-04-20 18:57 | 26.92351 | -81.99859 | 34 ft | 11 kts | 95° |
| 2026-04-20 18:57 | 26.92350 | -81.99844 | 33 ft | 0 kts | 88° |
| 2026-04-20 18:57 | 26.92353 | -81.99733 | 33 ft | 45 kts | 89° |
| 2026-04-20 18:58 | 26.92360 | -81.99178 | 90 ft | 86 kts | 88° |
| 2026-04-20 18:58 | 26.92357 | -81.98389 | 258 ft | 113 kts | 89° |
| 2026-04-20 18:58 | 26.92359 | -81.97458 | 513 ft | 125 kts | 86° |
| 2026-04-20 18:58 | 26.92371 | -81.96470 | 782 ft | 128 kts | 86° |
| 2026-04-20 18:59 | 26.92624 | -81.95562 | 1085 ft | 124 kts | 41° |
| 2026-04-20 18:59 | 26.93432 | -81.95232 | 1474 ft | 126 kts | 14° |
| 2026-04-20 18:59 | 26.94306 | -81.95054 | 1813 ft | 131 kts | 13° |
| 2026-04-20 18:59 | 26.95264 | -81.94877 | 1935 ft | 147 kts | 13° |
| 2026-04-20 19:00 | 26.96302 | -81.94686 | 2045 ft | 155 kts | 13° |
| 2026-04-20 19:00 | 26.97384 | -81.94484 | 2256 ft | 159 kts | 13° |
| 2026-04-20 19:00 | 26.98493 | -81.94278 | 2414 ft | 163 kts | 12° |
| 2026-04-20 19:00 | 26.99613 | -81.94066 | 2648 ft | 163 kts | 12° |
| 2026-04-20 19:01 | 27.00731 | -81.93860 | 2927 ft | 162 kts | 13° |
| 2026-04-20 19:01 | 27.01834 | -81.93651 | 3180 ft | 160 kts | 12° |
| 2026-04-20 19:01 | 27.02909 | -81.93450 | 3482 ft | 158 kts | 13° |
| 2026-04-20 19:01 | 27.03991 | -81.93247 | 3793 ft | 156 kts | 12° |
| 2026-04-20 19:02 | 27.05060 | -81.93050 | 4107 ft | 156 kts | 12° |
| 2026-04-20 19:02 | 27.06125 | -81.92847 | 4434 ft | 155 kts | 12° |
| 2026-04-20 19:02 | 27.07182 | -81.92650 | 4764 ft | 152 kts | 12° |
| 2026-04-20 19:02 | 27.08228 | -81.92454 | 5069 ft | 153 kts | 11° |
| 2026-04-20 19:03 | 27.09280 | -81.92260 | 5372 ft | 154 kts | 11° |
| 2026-04-20 19:03 | 27.10341 | -81.92058 | 5684 ft | 155 kts | 11° |
| 2026-04-20 19:03 | 27.11408 | -81.91857 | 6000 ft | 155 kts | 11° |
| 2026-04-20 19:03 | 27.12479 | -81.91657 | 6291 ft | 158 kts | 11° |
| 2026-04-20 19:04 | 27.13573 | -81.91450 | 6572 ft | 160 kts | 10° |
| 2026-04-20 19:04 | 27.14663 | -81.91246 | 6894 ft | 158 kts | 10° |
| 2026-04-20 19:04 | 27.15749 | -81.91041 | 7210 ft | 159 kts | 9° |
| 2026-04-20 19:04 | 27.16843 | -81.90837 | 7514 ft | 159 kts | 9° |
| 2026-04-20 19:05 | 27.17917 | -81.90635 | 7859 ft | 156 kts | 9° |
| 2026-04-20 19:05 | 27.18980 | -81.90434 | 8230 ft | 153 kts | 9° |
| 2026-04-20 19:05 | 27.20027 | -81.90239 | 8604 ft | 152 kts | 9° |
| 2026-04-20 19:05 | 27.21074 | -81.90041 | 8962 ft | 153 kts | 9° |
| 2026-04-20 19:06 | 27.22128 | -81.89842 | 9334 ft | 154 kts | 8° |
| 2026-04-20 19:06 | 27.23179 | -81.89645 | 9700 ft | 153 kts | 8° |
| 2026-04-20 19:06 | 27.24230 | -81.89448 | 10040 ft | 154 kts | 8° |
| 2026-04-20 19:06 | 27.25277 | -81.89197 | 10349 ft | 155 kts | 20° |
| 2026-04-20 19:07 | 27.26253 | -81.88670 | 10692 ft | 155 kts | 22° |
| 2026-04-20 19:07 | 27.27233 | -81.88161 | 10992 ft | 158 kts | 21° |
| 2026-04-20 19:07 | 27.28296 | -81.87610 | 11016 ft | 178 kts | 22° |
| 2026-04-20 19:07 | 27.29466 | -81.86995 | 11021 ft | 193 kts | 21° |
| 2026-04-20 19:08 | 27.30715 | -81.86341 | 11015 ft | 202 kts | 22° |
| 2026-04-20 19:08 | 27.33360 | -81.84952 | 11016 ft | 215 kts | 21° |
| 2026-04-20 19:08 | 27.34732 | -81.84235 | 11013 ft | 220 kts | 22° |
| 2026-04-20 19:09 | 27.36110 | -81.83512 | 11020 ft | 223 kts | 22° |
| 2026-04-20 19:09 | 27.37523 | -81.82771 | 11021 ft | 225 kts | 22° |
| 2026-04-20 19:09 | 27.38944 | -81.82025 | 11013 ft | 226 kts | 23° |
| 2026-04-20 19:09 | 27.40374 | -81.81274 | 11017 ft | 227 kts | 22° |
| 2026-04-20 19:10 | 27.41807 | -81.80524 | 11017 ft | 227 kts | 22° |
| 2026-04-20 19:10 | 27.43244 | -81.79770 | 11015 ft | 228 kts | 22° |
| 2026-04-20 19:10 | 27.44684 | -81.79013 | 11015 ft | 229 kts | 22° |
| 2026-04-20 19:10 | 27.46127 | -81.78255 | 11014 ft | 229 kts | 22° |
| 2026-04-20 19:11 | 27.47575 | -81.77496 | 11024 ft | 230 kts | 22° |
| 2026-04-20 19:11 | 27.49024 | -81.76735 | 11025 ft | 230 kts | 22° |
| 2026-04-20 19:11 | 27.50475 | -81.75984 | 11022 ft | 229 kts | 19° |
| 2026-04-20 19:11 | 27.52014 | -81.75629 | 11025 ft | 225 kts | 0° |
| 2026-04-20 19:12 | 27.53578 | -81.75612 | 11019 ft | 225 kts | 359° |
| 2026-04-20 19:12 | 27.55147 | -81.75576 | 11023 ft | 225 kts | 360° |
| 2026-04-20 19:12 | 27.56718 | -81.75541 | 11021 ft | 225 kts | 359° |
| 2026-04-20 19:12 | 27.58288 | -81.75511 | 11015 ft | 226 kts | 360° |
| 2026-04-20 19:13 | 27.59862 | -81.75481 | 11020 ft | 226 kts | 359° |
| 2026-04-20 19:13 | 27.61437 | -81.75450 | 11025 ft | 227 kts | 359° |
| 2026-04-20 19:13 | 27.63018 | -81.75419 | 11026 ft | 228 kts | 360° |
| 2026-04-20 19:13 | 27.64608 | -81.75386 | 11027 ft | 228 kts | 359° |
| 2026-04-20 19:14 | 27.66193 | -81.75355 | 11029 ft | 228 kts | 359° |
| 2026-04-20 19:14 | 27.67778 | -81.75325 | 11029 ft | 228 kts | 360° |
| 2026-04-20 19:14 | 27.69344 | -81.75293 | 11030 ft | 228 kts | 359° |
| 2026-04-20 19:14 | 27.70923 | -81.75261 | 11032 ft | 227 kts | 359° |
| 2026-04-20 19:15 | 27.72520 | -81.75230 | 11027 ft | 227 kts | 359° |
| 2026-04-20 19:15 | 27.74074 | -81.75200 | 11037 ft | 227 kts | 359° |
| 2026-04-20 19:15 | 27.75652 | -81.75168 | 11036 ft | 226 kts | 359° |
| 2026-04-20 19:15 | 27.77229 | -81.75136 | 11039 ft | 227 kts | 359° |
| 2026-04-20 19:16 | 27.78811 | -81.75105 | 11038 ft | 227 kts | 359° |
| 2026-04-20 19:16 | 27.80387 | -81.75074 | 11038 ft | 227 kts | 359° |
| 2026-04-20 19:16 | 27.81964 | -81.75042 | 11045 ft | 227 kts | 359° |
| 2026-04-20 19:16 | 27.83539 | -81.75009 | 11049 ft | 226 kts | 358° |
| 2026-04-20 19:17 | 27.85120 | -81.74982 | 11042 ft | 227 kts | 359° |
| 2026-04-20 19:17 | 27.86704 | -81.74948 | 11043 ft | 228 kts | 359° |
| 2026-04-20 19:17 | 27.88289 | -81.74915 | 11047 ft | 228 kts | 358° |
| 2026-04-20 19:17 | 27.89878 | -81.74884 | 11021 ft | 229 kts | 359° |
| 2026-04-20 19:18 | 27.91510 | -81.74830 | 10788 ft | 240 kts | 3° |
| 2026-04-20 19:18 | 27.93175 | -81.74489 | 10564 ft | 246 kts | 8° |
| 2026-04-20 19:18 | 27.94869 | -81.74116 | 10346 ft | 250 kts | 7° |
| 2026-04-20 19:18 | 27.96591 | -81.73761 | 10129 ft | 252 kts | 7° |
| 2026-04-20 19:19 | 27.98320 | -81.73404 | 9896 ft | 253 kts | 8° |
| 2026-04-20 19:19 | 28.00009 | -81.73023 | 9690 ft | 245 kts | 12° |
| 2026-04-20 19:19 | 28.01571 | -81.72253 | 9446 ft | 242 kts | 30° |
| 2026-04-20 19:19 | 28.02824 | -81.71030 | 9205 ft | 242 kts | 45° |
| 2026-04-20 19:20 | 28.03736 | -81.69386 | 8959 ft | 248 kts | 62° |
| 2026-04-20 19:20 | 28.04191 | -81.67489 | 8722 ft | 251 kts | 77° |
| 2026-04-20 19:20 | 28.04496 | -81.65560 | 8523 ft | 248 kts | 76° |
| 2026-04-20 19:20 | 28.04814 | -81.63670 | 8330 ft | 246 kts | 75° |
| 2026-04-20 19:21 | 28.05123 | -81.61781 | 8193 ft | 243 kts | 77° |
| 2026-04-20 19:21 | 28.05424 | -81.59906 | 8068 ft | 241 kts | 76° |
| 2026-04-20 19:21 | 28.05728 | -81.58036 | 7944 ft | 242 kts | 76° |
| 2026-04-20 19:21 | 28.06029 | -81.56164 | 7825 ft | 240 kts | 76° |
| 2026-04-20 19:22 | 28.06332 | -81.54316 | 7717 ft | 237 kts | 77° |
| 2026-04-20 19:22 | 28.06629 | -81.52482 | 7591 ft | 237 kts | 76° |
| 2026-04-20 19:22 | 28.06925 | -81.50653 | 7429 ft | 236 kts | 76° |
| 2026-04-20 19:22 | 28.07225 | -81.48829 | 7285 ft | 235 kts | 76° |
| 2026-04-20 19:23 | 28.07516 | -81.47016 | 7123 ft | 232 kts | 76° |
| 2026-04-20 19:23 | 28.07799 | -81.45215 | 6974 ft | 230 kts | 74° |
| 2026-04-20 19:23 | 28.08181 | -81.43496 | 6966 ft | 219 kts | 63° |
| 2026-04-20 19:23 | 28.08971 | -81.42072 | 6946 ft | 211 kts | 45° |
| 2026-04-20 19:24 | 28.10075 | -81.40998 | 6901 ft | 209 kts | 30° |
| 2026-04-20 19:24 | 28.11278 | -81.40070 | 6881 ft | 210 kts | 32° |
| 2026-04-20 19:24 | 28.12484 | -81.39106 | 6612 ft | 214 kts | 33° |
| 2026-04-20 19:24 | 28.13693 | -81.38148 | 6218 ft | 210 kts | 32° |
| 2026-04-20 19:25 | 28.14882 | -81.37218 | 5846 ft | 205 kts | 33° |
| 2026-04-20 19:25 | 28.16042 | -81.36303 | 5512 ft | 200 kts | 33° |
| 2026-04-20 19:25 | 28.17145 | -81.35431 | 5176 ft | 187 kts | 33° |
| 2026-04-20 19:25 | 28.18174 | -81.34621 | 4885 ft | 174 kts | 34° |
| 2026-04-20 19:26 | 28.19144 | -81.33856 | 4621 ft | 166 kts | 33° |
| 2026-04-20 19:26 | 28.20064 | -81.33128 | 4361 ft | 158 kts | 34° |
| 2026-04-20 19:26 | 28.20981 | -81.32534 | 4123 ft | 152 kts | 17° |
| 2026-04-20 19:26 | 28.22042 | -81.32446 | 3864 ft | 152 kts | 2° |
| 2026-04-20 19:27 | 28.23073 | -81.32469 | 3610 ft | 150 kts | 5° |
| 2026-04-20 19:27 | 28.24113 | -81.32476 | 3343 ft | 149 kts | 5° |
| 2026-04-20 19:27 | 28.25142 | -81.32486 | 3094 ft | 145 kts | 4° |
| 2026-04-20 19:27 | 28.26104 | -81.32500 | 2858 ft | 128 kts | 6° |
| 2026-04-20 19:28 | 28.26921 | -81.32513 | 2632 ft | 107 kts | 7° |
| 2026-04-20 19:28 | 28.27584 | -81.32522 | 2394 ft | 89 kts | 7° |
| 2026-04-20 19:28 | 28.28197 | -81.32526 | 2156 ft | 89 kts | 7° |
| 2026-04-20 19:28 | 28.28829 | -81.32528 | 2002 ft | 91 kts | 7° |
| 2026-04-20 19:29 | 28.29466 | -81.32534 | 1888 ft | 91 kts | 6° |
| 2026-04-20 19:29 | 28.30083 | -81.32542 | 1697 ft | 85 kts | 7° |
| 2026-04-20 19:29 | 28.30648 | -81.32548 | 1586 ft | 81 kts | 9° |
| 2026-04-20 19:29 | 28.31239 | -81.32550 | 1589 ft | 87 kts | 8° |
| 2026-04-20 19:30 | 28.31846 | -81.32556 | 1590 ft | 88 kts | 7° |
| 2026-04-20 19:30 | 28.32453 | -81.32564 | 1587 ft | 86 kts | 7° |
| 2026-04-20 19:30 | 28.33039 | -81.32573 | 1590 ft | 82 kts | 8° |
| 2026-04-20 19:30 | 28.33600 | -81.32580 | 1592 ft | 80 kts | 10° |
| 2026-04-20 19:31 | 28.34159 | -81.32582 | 1569 ft | 82 kts | 9° |
| 2026-04-20 19:31 | 28.34734 | -81.32590 | 1473 ft | 83 kts | 7° |
| 2026-04-20 19:31 | 28.35322 | -81.32596 | 1361 ft | 85 kts | 7° |
| 2026-04-20 19:31 | 28.35907 | -81.32604 | 1249 ft | 83 kts | 6° |
| 2026-04-20 19:32 | 28.36482 | -81.32611 | 1141 ft | 84 kts | 8° |
| 2026-04-20 19:32 | 28.37075 | -81.32616 | 1026 ft | 86 kts | 11° |
| 2026-04-20 19:32 | 28.37672 | -81.32620 | 902 ft | 83 kts | 6° |
| 2026-04-20 19:32 | 28.38233 | -81.32628 | 790 ft | 79 kts | 5° |
| 2026-04-20 19:33 | 28.38790 | -81.32635 | 685 ft | 83 kts | 7° |
| 2026-04-20 19:33 | 28.39377 | -81.32643 | 574 ft | 85 kts | 7° |
| 2026-04-20 19:33 | 28.39969 | -81.32647 | 445 ft | 85 kts | 9° |
| 2026-04-20 19:33 | 28.40561 | -81.32648 | 313 ft | 85 kts | 4° |
| 2026-04-20 19:34 | 28.41137 | -81.32664 | 193 ft | 81 kts | 5° |
| 2026-04-20 19:34 | 28.41703 | -81.32666 | 115 ft | 78 kts | 5° |
| 2026-04-20 19:34 | 28.42179 | -81.32670 | 97 ft | 57 kts | 5° |
| 2026-04-20 19:34 | 28.42515 | -81.32670 | 98 ft | 40 kts | 357° |
| 2026-04-20 19:35 | 28.42648 | -81.32723 | 97 ft | 13 kts | 283° |
| 2026-04-20 19:35 | 28.42653 | -81.32831 | 98 ft | 13 kts | 267° |
| 2026-04-20 19:35 | 28.42623 | -81.32916 | 97 ft | 15 kts | 196° |
| 2026-04-20 19:35 | 28.42472 | -81.32917 | 93 ft | 28 kts | 180° |
| 2026-04-20 19:36 | 28.42295 | -81.32916 | 96 ft | 21 kts | 179° |
| 2026-04-20 19:36 | 28.42152 | -81.32915 | 97 ft | 18 kts | 180° |
| 2026-04-20 19:36 | 28.42081 | -81.32933 | 97 ft | 4 kts | 245° |
| 2026-04-20 19:36 | 28.42079 | -81.33005 | 97 ft | 14 kts | 272° |
| 2026-04-20 19:37 | 28.42101 | -81.33115 | 97 ft | 13 kts | 295° |
| 2026-04-20 19:37 | 28.42179 | -81.33140 | 95 ft | 9 kts | 2° |
| 2026-04-20 19:37 | 28.42196 | -81.33140 | 95 ft | 0 kts | 360° |